Terminal Aerodrome Forecast
Issued by NWS

Home | Current Version | Previous Version | Text Only | Print | Product List | Glossary On
Versions: 1 2 3 4 5 6 7 8 9 10 11 12 13 14 15 16 17 18 19
000
FTUS41 KILN 302351
TAFLUK
TAF
KLUK 302351Z 3100/3124 19010KT P6SM VCTS BKN040CB
     FM310200 19007KT 5SM -SHRA BR VCTS OVC040CB
      TEMPO 3102/3106 3SM TSRA BR OVC028CB
     FM310600 19005KT 3SM -SHRA BR OVC028
     FM311000 21005KT P6SM VCSH OVC025
     FM311200 22006KT P6SM OVC019
     FM311800 26009KT P6SM OVC019=

USA.gov is the U.S. government's official web portal to all federal, state and local government web resources and services.